Time;durP1;ratioP1;P1;durP2;ratioP2;P2;SDS_P1;SDS_P2;PMS_P1;PMS_P2;Temp;Humidity;BMP_temperature;BMP_pressure;BME280_temperature;BME280_humidity;BME280_pressure;Samples;Min_cycle;Max_cycle;Signal;HPM_P1;HPM_P2
2022/11/07 00:02:25;;;;;;;58.77;3.40;;;11.40;1.00;;;;;;5071617;28;20435;-73
2022/11/07 00:04:51;;;;;;;58.27;3.00;;;11.10;1.00;;;;;;5071778;28;20534;-73
2022/11/07 00:07:18;;;;;;;58.63;3.33;;;11.00;1.00;;;;;;5075673;28;20491;-73
2022/11/07 00:09:46;;;;;;;61.10;3.17;;;11.10;1.00;;;;;;5075214;28;20802;-73
2022/11/07 00:12:13;;;;;;;59.70;3.00;;;11.30;1.00;;;;;;5075815;28;20455;-73
2022/11/07 00:14:40;;;;;;;57.80;3.07;;;11.50;1.00;;;;;;5075797;28;20978;-73
2022/11/07 00:17:07;;;;;;;58.40;3.07;;;11.50;1.00;;;;;;5075561;28;20485;-74
2022/11/07 00:19:35;;;;;;;58.47;3.43;;;11.50;1.00;;;;;;5075124;28;20455;-74
2022/11/07 00:22:01;;;;;;;58.53;3.40;;;11.60;1.00;;;;;;5075539;28;20529;-74
2022/11/07 00:24:28;;;;;;;58.90;3.23;;;11.60;1.00;;;;;;5075460;28;20462;-73
2022/11/07 00:26:56;;;;;;;58.67;3.33;;;12.10;1.00;;;;;;5075269;28;21068;-74
2022/11/07 00:29:23;;;;;;;58.33;3.27;;;12.30;1.00;;;;;;5074877;28;20947;-73
2022/11/07 00:31:50;;;;;;;59.10;3.80;;;12.20;1.00;;;;;;5075304;28;20443;-74
2022/11/07 00:34:17;;;;;;;58.80;3.47;;;12.10;1.00;;;;;;5075738;28;20953;-74
2022/11/07 00:36:43;;;;;;;61.00;3.50;;;12.40;1.00;;;;;;5075263;28;20454;-74
2022/11/07 00:39:11;;;;;;;58.30;3.57;;;12.20;1.00;;;;;;5074469;28;20447;-73
2022/11/07 00:41:38;;;;;;;60.27;3.53;;;12.50;1.00;;;;;;5075268;28;20542;-73
2022/11/07 00:44:06;;;;;;;58.30;3.30;;;12.70;1.00;;;;;;5075151;28;20856;-73
2022/11/07 00:46:33;;;;;;;58.77;3.73;;;12.80;1.00;;;;;;5074837;28;20566;-74
2022/11/07 00:49:00;;;;;;;60.87;5.10;;;12.90;1.00;;;;;;5074434;28;20469;-74
2022/11/07 00:51:28;;;;;;;60.57;5.07;;;12.70;1.00;;;;;;5075097;28;20447;-74
2022/11/07 00:53:55;;;;;;;59.90;4.70;;;12.80;1.00;;;;;;5074956;28;20458;-72
2022/11/07 00:56:24;;;;;;;59.47;4.20;;;12.70;1.00;;;;;;5074740;28;20454;-74
2022/11/07 00:58:54;;;;;;;59.47;4.13;;;12.80;1.00;;;;;;5073959;28;20489;-73
2022/11/07 01:01:24;;;;;;;58.97;3.70;;;13.00;1.00;;;;;;5075054;28;20550;-73
2022/11/07 01:06:34;;;;;;;59.50;3.70;;;13.00;1.00;;;;;;5041036;28;20515;-73
2022/11/07 01:09:02;;;;;;;59.33;3.60;;;12.90;1.00;;;;;;5073577;28;20467;-74
2022/11/07 01:11:29;;;;;;;58.07;3.37;;;13.00;1.00;;;;;;5074794;28;20903;-74
2022/11/07 01:13:56;;;;;;;58.40;3.30;;;13.00;1.00;;;;;;5074743;28;20455;-73
2022/11/07 01:16:25;;;;;;;58.30;3.33;;;12.90;1.00;;;;;;5074662;28;20447;-74
2022/11/07 01:18:52;;;;;;;58.90;3.77;;;12.90;1.00;;;;;;5073802;28;20474;-73
2022/11/07 01:21:19;;;;;;;58.00;3.23;;;12.70;1.00;;;;;;5074467;28;20473;-74
2022/11/07 01:23:46;;;;;;;58.53;3.13;;;12.10;1.00;;;;;;5074297;28;20985;-73
2022/11/07 01:26:13;;;;;;;58.50;3.50;;;12.20;1.00;;;;;;5074220;28;20491;-74
2022/11/07 01:28:41;;;;;;;60.70;3.90;;;12.30;1.00;;;;;;5073839;28;20471;-74
2022/11/07 01:31:11;;;;;;;59.67;4.47;;;12.00;1.00;;;;;;5074166;28;20935;-73
2022/11/07 01:33:39;;;;;;;60.57;3.93;;;11.90;1.00;;;;;;5074382;28;20447;-72
2022/11/07 01:36:09;;;;;;;58.77;3.73;;;11.70;1.00;;;;;;5074179;28;20469;-73
2022/11/07 01:38:38;;;;;;;59.40;4.10;;;12.00;1.00;;;;;;5073233;28;20471;-73
2022/11/07 01:41:24;;;;;;;61.30;3.30;;;11.50;1.00;;;;;;5074270;28;20464;-73
2022/11/07 01:43:54;;;;;;;58.57;3.13;;;11.40;1.00;;;;;;5074200;28;20447;-74
2022/11/07 01:46:24;;;;;;;58.70;3.40;;;11.50;1.00;;;;;;5073862;28;20528;-74
2022/11/07 01:48:58;;;;;;;59.87;3.17;;;11.50;1.00;;;;;;5073558;28;20471;-74
2022/11/07 01:51:26;;;;;;;58.30;3.20;;;11.50;1.00;;;;;;5073922;28;20464;-73
2022/11/07 01:53:54;;;;;;;59.33;3.57;;;11.50;1.00;;;;;;5074131;28;20447;-74
2022/11/07 01:56:24;;;;;;;58.80;3.33;;;11.50;1.00;;;;;;5074587;28;20440;-73
2022/11/07 01:58:53;;;;;;;60.77;3.40;;;11.50;1.00;;;;;;5073315;28;20475;-73
2022/11/07 02:01:19;;;;;;;60.53;3.57;;;11.60;1.00;;;;;;5074203;28;20457;-74
2022/11/07 02:03:47;;;;;;;58.23;3.20;;;11.50;1.00;;;;;;5073674;28;20458;-74
2022/11/07 02:06:20;;;;;;;58.80;3.50;;;11.70;1.00;;;;;;5073631;28;20489;-74
2022/11/07 02:08:49;;;;;;;59.47;3.50;;;11.60;1.00;;;;;;5072845;28;20493;-74
2022/11/07 02:11:17;;;;;;;60.00;3.70;;;11.70;1.00;;;;;;5073606;28;20455;-74
2022/11/07 02:13:44;;;;;;;58.47;3.33;;;11.80;1.00;;;;;;5073386;28;20455;-74
2022/11/07 02:16:10;;;;;;;58.77;3.30;;;11.90;1.00;;;;;;5073258;28;20450;-74
2022/11/07 02:18:41;;;;;;;58.23;3.50;;;12.00;1.00;;;;;;5072697;28;20857;-73
2022/11/07 02:21:16;;;;;;;59.03;3.17;;;12.20;1.00;;;;;;5073440;28;20536;-73
2022/11/07 02:23:49;;;;;;;59.10;3.80;;;12.70;1.00;;;;;;5073227;28;20462;-73
2022/11/07 02:26:19;;;;;;;58.87;3.40;;;12.50;1.00;;;;;;5073152;28;21025;-73
2022/11/07 02:28:47;;;;;;;60.70;3.20;;;12.10;1.00;;;;;;5071685;28;20849;-73
2022/11/07 02:31:14;;;;;;;58.43;3.43;;;12.00;1.00;;;;;;5073306;28;20451;-74
2022/11/07 02:33:41;;;;;;;58.77;3.43;;;12.00;1.00;;;;;;5072964;28;21059;-74
2022/11/07 02:36:13;;;;;;;58.30;3.07;;;11.80;1.00;;;;;;5073145;28;20447;-73
2022/11/07 02:38:40;;;;;;;58.87;3.43;;;11.90;1.00;;;;;;5072047;28;20476;-73
2022/11/07 02:41:10;;;;;;;60.60;3.50;;;11.80;1.00;;;;;;5073001;28;20936;-74
2022/11/07 02:43:42;;;;;;;59.60;3.60;;;11.70;1.00;;;;;;5073000;28;20455;-74
2022/11/07 02:46:11;;;;;;;58.60;3.90;;;11.60;1.00;;;;;;5072930;28;20452;-74
2022/11/07 02:48:43;;;;;;;58.50;3.60;;;11.70;1.00;;;;;;5072238;28;20475;-73
2022/11/07 02:51:10;;;;;;;58.80;3.70;;;11.80;1.00;;;;;;5068646;28;20461;-73
2022/11/07 02:53:37;;;;;;;60.50;3.43;;;11.80;1.00;;;;;;5072902;28;20451;-73
2022/11/07 02:56:04;;;;;;;59.47;3.70;;;11.70;1.00;;;;;;5072617;28;20829;-74
2022/11/07 02:58:31;;;;;;;62.37;3.80;;;11.80;1.00;;;;;;5072195;28;20481;-74
2022/11/07 03:01:05;;;;;;;60.20;3.20;;;11.90;1.00;;;;;;5072451;28;20966;-74
2022/11/07 03:03:33;;;;;;;59.00;3.50;;;12.20;1.00;;;;;;5072633;28;20883;-72
2022/11/07 03:06:00;;;;;;;58.60;3.70;;;12.10;1.00;;;;;;5072549;28;20825;-73
2022/11/07 03:08:27;;;;;;;59.17;3.43;;;12.10;1.00;;;;;;5072097;28;20487;-74
2022/11/07 03:10:54;;;;;;;58.30;3.40;;;12.10;1.00;;;;;;5071939;28;20827;-74
2022/11/07 03:13:21;;;;;;;58.80;3.80;;;12.10;1.00;;;;;;5072344;28;20447;-74
2022/11/07 03:15:47;;;;;;;58.97;3.43;;;12.10;1.00;;;;;;5072509;28;20451;-74
2022/11/07 03:18:16;;;;;;;57.77;3.10;;;12.10;1.00;;;;;;5072166;28;20858;-73
2022/11/07 03:20:43;;;;;;;58.60;3.07;;;12.20;1.00;;;;;;5071655;28;20811;-73
2022/11/07 03:23:10;;;;;;;60.03;3.30;;;12.40;1.00;;;;;;5072163;28;20465;-74
2022/11/07 03:25:36;;;;;;;59.40;3.80;;;12.70;1.00;;;;;;5072170;28;20447;-74
2022/11/07 03:28:04;;;;;;;59.23;3.70;;;12.60;1.00;;;;;;5071701;28;21025;-74
2022/11/07 03:30:31;;;;;;;58.27;3.83;;;12.50;1.00;;;;;;5071582;28;20453;-73
2022/11/07 03:32:58;;;;;;;59.87;3.90;;;12.50;1.00;;;;;;5072090;28;20454;-74
2022/11/07 03:35:26;;;;;;;58.67;3.43;;;12.50;1.00;;;;;;5072067;28;20451;-74
2022/11/07 03:37:54;;;;;;;58.90;3.50;;;12.80;1.00;;;;;;5071823;28;20983;-73
2022/11/07 03:40:21;;;;;;;58.60;3.10;;;12.80;1.00;;;;;;5070445;28;20460;-74
2022/11/07 03:42:47;;;;;;;59.43;3.03;;;12.70;1.00;;;;;;5072262;28;20538;-74
2022/11/07 03:45:15;;;;;;;58.00;3.10;;;12.60;1.00;;;;;;5071852;28;20443;-74
2022/11/07 03:47:44;;;;;;;58.97;3.30;;;12.60;1.00;;;;;;5071810;28;20571;-74
2022/11/07 03:50:13;;;;;;;59.17;3.40;;;12.60;1.00;;;;;;5071073;28;20455;-74
2022/11/07 03:52:42;;;;;;;59.63;3.60;;;12.60;1.00;;;;;;5071895;28;20448;-73
2022/11/07 03:55:09;;;;;;;58.40;3.37;;;12.70;1.00;;;;;;5071648;28;20443;-73
2022/11/07 03:57:37;;;;;;;59.73;3.27;;;12.60;1.00;;;;;;5071747;28;20546;-74
2022/11/07 04:00:06;;;;;;;59.23;3.10;;;12.70;1.00;;;;;;5071128;28;20457;-73
2022/11/07 04:02:32;;;;;;;59.77;3.57;;;12.70;1.00;;;;;;5071901;28;20447;-73
2022/11/07 04:04:59;;;;;;;60.27;3.93;;;12.60;1.00;;;;;;5071632;28;20454;-74
2022/11/07 04:07:26;;;;;;;58.90;3.17;;;12.60;1.00;;;;;;5071449;28;20612;-73
2022/11/07 04:09:54;;;;;;;58.37;3.20;;;12.80;1.00;;;;;;5070879;28;20448;-74
2022/11/07 04:17:50;;;;;;;59.50;3.60;;;12.60;1.00;;;;;;5071496;28;20442;-73
2022/11/07 04:20:17;;;;;;;60.13;3.50;;;12.50;1.00;;;;;;5070825;28;20450;-74
2022/11/07 04:22:44;;;;;;;59.93;3.40;;;12.50;1.00;;;;;;5071486;28;20466;-74
2022/11/07 04:25:12;;;;;;;60.00;3.47;;;12.60;1.00;;;;;;5071567;28;20455;-74
2022/11/07 04:27:41;;;;;;;58.93;2.80;;;12.50;1.00;;;;;;5071408;28;20483;-74
2022/11/07 04:30:18;;;;;;;59.33;3.40;;;12.60;1.00;;;;;;5070832;28;20482;-74
2022/11/07 04:32:46;;;;;;;58.83;3.50;;;12.60;1.00;;;;;;5071373;28;20500;-74
2022/11/07 04:35:12;;;;;;;61.83;3.47;;;12.50;1.00;;;;;;5071533;28;20443;-73
2022/11/07 04:37:39;;;;;;;58.50;2.93;;;12.50;1.00;;;;;;5071483;28;20473;-74
2022/11/07 04:40:08;;;;;;;58.60;3.23;;;12.90;1.00;;;;;;5070629;28;20454;-74
2022/11/07 04:42:36;;;;;;;60.10;3.40;;;12.90;1.00;;;;;;5071561;28;20444;-74
2022/11/07 04:45:03;;;;;;;60.40;3.67;;;12.70;1.00;;;;;;5071220;28;20457;-72
2022/11/07 04:47:30;;;;;;;58.50;3.30;;;12.80;1.00;;;;;;5070966;28;20491;-74
2022/11/07 04:49:56;;;;;;;60.00;3.73;;;12.90;1.00;;;;;;5070667;28;20447;-74
2022/11/07 04:52:23;;;;;;;58.83;3.27;;;13.10;1.00;;;;;;5073884;28;20447;-74
2022/11/07 04:54:50;;;;;;;59.27;3.50;;;13.10;1.00;;;;;;5075164;28;20459;-74
2022/11/07 04:57:17;;;;;;;58.20;3.20;;;13.20;1.00;;;;;;5074823;28;20463;-74
2022/11/07 04:59:45;;;;;;;58.80;3.10;;;13.40;1.00;;;;;;5074101;28;20447;-73
2022/11/07 05:02:12;;;;;;;58.67;3.13;;;13.10;1.00;;;;;;5074913;28;20457;-74
2022/11/07 05:04:40;;;;;;;58.47;3.20;;;13.00;1.00;;;;;;5074915;28;20451;-73
2022/11/07 05:07:07;;;;;;;58.10;3.00;;;12.80;1.00;;;;;;5074667;28;20491;-74
2022/11/07 05:09:34;;;;;;;58.90;3.30;;;12.80;1.00;;;;;;5073870;28;21061;-74
2022/11/07 05:12:01;;;;;;;59.77;3.37;;;12.60;1.00;;;;;;5074600;28;20542;-74
2022/11/07 05:14:29;;;;;;;60.90;3.37;;;12.70;1.00;;;;;;5074547;28;20795;-74
2022/11/07 05:16:58;;;;;;;59.27;3.80;;;12.70;1.00;;;;;;5074669;28;20443;-73
2022/11/07 05:19:25;;;;;;;59.07;3.93;;;12.60;1.00;;;;;;5073693;28;20447;-74
2022/11/07 05:23:11;;;;;;;59.00;3.80;;;12.60;1.00;;;;;;5074488;28;20829;-74
2022/11/07 05:24:38;;;;;;;60.27;3.70;;;12.40;1.00;;;;;;5074235;28;20455;-74
2022/11/07 05:27:05;;;;;;;59.50;3.30;;;12.60;1.00;;;;;;5074127;28;20536;-74
2022/11/07 05:29:32;;;;;;;62.97;3.70;;;12.70;1.00;;;;;;5073543;28;20444;-73
2022/11/07 05:32:00;;;;;;;61.30;4.00;;;12.70;1.00;;;;;;5074267;28;20443;-73
2022/11/07 05:34:27;;;;;;;58.63;3.30;;;12.60;1.00;;;;;;5073940;28;20960;-74
2022/11/07 05:36:54;;;;;;;60.07;3.50;;;12.40;1.00;;;;;;5074246;28;20443;-74
2022/11/07 05:39:22;;;;;;;61.83;3.50;;;12.40;1.00;;;;;;5073262;28;20452;-73
2022/11/07 05:41:49;;;;;;;58.83;3.30;;;12.60;1.00;;;;;;5074247;28;20508;-74
2022/11/07 05:44:15;;;;;;;60.33;3.70;;;12.80;1.00;;;;;;5073941;28;20455;-74
2022/11/07 05:46:42;;;;;;;59.40;3.50;;;12.60;1.00;;;;;;5073891;28;20952;-74
2022/11/07 05:49:10;;;;;;;59.10;3.80;;;12.60;1.00;;;;;;5073188;28;20483;-74
2022/11/07 05:51:37;;;;;;;62.50;3.40;;;12.70;1.00;;;;;;5073868;28;20449;-73
2022/11/07 05:54:04;;;;;;;58.87;3.50;;;12.60;1.00;;;;;;5073734;28;20450;-74
2022/11/07 05:56:31;;;;;;;58.57;3.33;;;13.00;1.00;;;;;;5073942;28;20439;-73
2022/11/07 05:58:58;;;;;;;63.67;3.70;;;12.70;1.00;;;;;;5073005;28;20455;-74
2022/11/07 06:01:25;;;;;;;60.37;3.60;;;13.00;1.00;;;;;;5073805;28;20444;-74
2022/11/07 06:03:51;;;;;;;58.60;3.60;;;12.70;1.00;;;;;;5072621;28;20534;-73
2022/11/07 06:06:19;;;;;;;59.70;3.80;;;12.60;1.00;;;;;;5073605;28;20816;-74
2022/11/07 06:08:46;;;;;;;58.70;3.53;;;12.50;1.00;;;;;;5072549;28;20485;-74
2022/11/07 06:11:13;;;;;;;59.60;3.50;;;12.40;1.00;;;;;;5073686;28;20539;-73
2022/11/07 06:13:40;;;;;;;58.60;3.20;;;12.50;1.00;;;;;;5073422;28;20978;-74
2022/11/07 06:16:08;;;;;;;59.27;3.80;;;12.70;1.00;;;;;;5073561;28;21087;-74
2022/11/07 06:18:36;;;;;;;61.17;3.53;;;13.20;1.00;;;;;;5073024;28;20463;-74
2022/11/07 06:21:03;;;;;;;59.63;3.47;;;13.00;1.00;;;;;;5073208;28;20501;-74
2022/11/07 06:23:31;;;;;;;58.80;3.07;;;12.80;1.00;;;;;;5073166;28;20459;-74
2022/11/07 06:25:58;;;;;;;60.43;3.93;;;12.80;1.00;;;;;;5073219;28;20463;-73
2022/11/07 06:28:25;;;;;;;59.17;3.67;;;13.10;1.00;;;;;;5072957;28;20487;-73
2022/11/07 06:30:52;;;;;;;58.97;3.80;;;13.30;1.00;;;;;;5072551;28;20450;-74
2022/11/07 06:33:19;;;;;;;61.27;4.33;;;13.30;1.00;;;;;;5073095;28;20452;-74
2022/11/07 06:35:46;;;;;;;62.27;3.60;;;13.30;1.00;;;;;;5072852;28;20458;-73
2022/11/07 06:38:14;;;;;;;65.27;3.47;;;13.70;1.00;;;;;;5072873;28;20472;-74
2022/11/07 06:40:42;;;;;;;60.60;4.10;;;13.80;1.00;;;;;;5072158;28;20451;-74
2022/11/07 06:43:11;;;;;;;60.47;3.70;;;13.90;1.00;;;;;;5072950;28;20821;-74
2022/11/07 06:45:39;;;;;;;59.70;3.40;;;13.70;1.00;;;;;;5072819;28;20462;-73
2022/11/07 06:48:06;;;;;;;61.70;3.77;;;13.20;1.00;;;;;;5072408;28;20487;-74
2022/11/07 06:50:34;;;;;;;59.00;3.50;;;13.50;1.00;;;;;;5072436;28;20820;-75
2022/11/07 06:53:02;;;;;;;59.53;4.13;;;13.70;1.00;;;;;;5072961;28;20459;-73
2022/11/07 06:55:29;;;;;;;60.60;4.00;;;13.90;1.00;;;;;;5072706;28;20460;-73
2022/11/07 06:57:59;;;;;;;61.87;4.37;;;14.00;1.00;;;;;;5072431;28;20468;-74
2022/11/07 07:00:26;;;;;;;58.80;3.60;;;13.80;1.00;;;;;;5071868;28;20451;-74
2022/11/07 07:02:53;;;;;;;59.63;3.77;;;13.90;1.00;;;;;;5072365;28;20455;-74
2022/11/07 07:05:20;;;;;;;62.87;4.87;;;13.70;1.00;;;;;;5072682;28;20456;-73
2022/11/07 07:07:47;;;;;;;61.37;4.30;;;13.20;1.00;;;;;;5072509;28;20495;-74
2022/11/07 07:10:14;;;;;;;62.77;4.20;;;13.20;1.00;;;;;;5071680;28;20474;-74
2022/11/07 07:12:41;;;;;;;59.93;4.03;;;13.30;1.00;;;;;;5072244;28;20538;-74
2022/11/07 07:15:12;;;;;;;61.10;4.53;;;13.60;1.00;;;;;;5072024;28;20538;-74
2022/11/07 07:17:39;;;;;;;60.80;3.97;;;13.60;1.00;;;;;;5072314;28;20563;-73
2022/11/07 07:20:07;;;;;;;61.57;4.13;;;13.60;1.00;;;;;;5071331;28;20951;-74
2022/11/07 07:22:34;;;;;;;60.70;3.90;;;13.70;1.00;;;;;;5072018;28;20558;-74
2022/11/07 07:25:01;;;;;;;59.83;3.80;;;14.00;1.00;;;;;;5072227;28;20443;-73
2022/11/07 07:27:30;;;;;;;61.17;3.60;;;13.60;1.00;;;;;;5071871;28;20502;-73
2022/11/07 07:29:56;;;;;;;61.10;3.43;;;13.80;1.00;;;;;;5071057;28;20458;-74
2022/11/07 07:32:25;;;;;;;60.13;3.90;;;13.80;1.00;;;;;;5072156;28;20458;-73
2022/11/07 07:34:52;;;;;;;62.20;4.37;;;14.00;1.00;;;;;;5072109;28;20447;-74
2022/11/07 07:37:19;;;;;;;59.80;3.40;;;13.60;1.00;;;;;;5072054;28;20471;-74
2022/11/07 07:39:46;;;;;;;60.10;3.43;;;13.50;1.00;;;;;;5071137;28;20455;-74
2022/11/07 07:42:13;;;;;;;60.50;3.90;;;13.30;1.00;;;;;;5071857;28;20452;-74
2022/11/07 07:44:39;;;;;;;63.70;4.07;;;13.30;1.00;;;;;;5072043;28;20455;-73
2022/11/07 07:47:06;;;;;;;58.70;3.77;;;13.50;1.00;;;;;;5071098;28;20472;-73
2022/11/07 07:49:34;;;;;;;62.93;3.73;;;13.40;1.00;;;;;;5071123;28;20570;-74
2022/11/07 07:52:01;;;;;;;60.77;3.60;;;13.40;1.00;;;;;;5071546;28;20447;-74
2022/11/07 07:54:28;;;;;;;60.53;3.93;;;13.40;1.00;;;;;;5071843;28;20454;-73
2022/11/07 07:56:55;;;;;;;61.60;3.80;;;13.50;1.00;;;;;;5071694;28;20459;-74
2022/11/07 07:59:22;;;;;;;62.07;3.87;;;13.70;1.00;;;;;;5071275;28;20454;-74
2022/11/07 08:01:48;;;;;;;59.10;3.90;;;14.20;1.00;;;;;;5071904;28;20819;-73
2022/11/07 08:04:15;;;;;;;62.17;3.70;;;14.70;1.00;;;;;;5071789;28;20458;-74
2022/11/07 08:06:43;;;;;;;60.43;3.67;;;14.90;1.00;;;;;;5071612;28;20801;-73
2022/11/07 08:09:10;;;;;;;59.10;3.60;;;15.00;1.00;;;;;;5070848;28;20483;-73
2022/11/07 08:11:37;;;;;;;59.30;3.60;;;14.70;1.00;;;;;;5071751;28;20455;-73
2022/11/07 08:14:04;;;;;;;61.60;3.20;;;14.40;1.00;;;;;;5071872;28;20508;-73
2022/11/07 08:16:31;;;;;;;60.10;3.97;;;14.50;1.00;;;;;;5072012;28;20558;-73
2022/11/07 08:18:58;;;;;;;60.40;3.70;;;14.60;1.00;;;;;;5071195;28;20536;-74
2022/11/07 08:21:25;;;;;;;60.73;3.67;;;14.40;1.00;;;;;;5071891;28;20459;-74
2022/11/07 08:23:53;;;;;;;61.10;4.07;;;14.40;1.00;;;;;;5071620;28;20465;-73
2022/11/07 08:26:20;;;;;;;60.10;3.90;;;14.40;1.00;;;;;;5072937;28;20455;-74
2022/11/07 08:28:47;;;;;;;59.40;4.23;;;14.40;1.00;;;;;;5075013;28;20495;-73
2022/11/07 08:31:14;;;;;;;58.80;3.23;;;14.30;1.00;;;;;;5075877;28;20513;-73
2022/11/07 08:33:41;;;;;;;60.37;3.17;;;14.20;1.00;;;;;;5075470;28;20833;-74
2022/11/07 08:36:08;;;;;;;59.43;3.60;;;14.20;1.00;;;;;;5075722;28;20509;-74
2022/11/07 08:38:36;;;;;;;58.50;3.43;;;14.40;1.00;;;;;;5074624;28;20463;-73
2022/11/07 08:41:05;;;;;;;62.37;5.20;;;14.40;1.00;;;;;;5075682;28;20829;-74
2022/11/07 08:43:32;;;;;;;63.43;4.10;;;14.60;1.00;;;;;;5075620;28;20521;-74
2022/11/07 08:45:58;;;;;;;62.63;4.27;;;14.80;1.00;;;;;;5075715;28;20439;-74
2022/11/07 08:48:26;;;;;;;59.67;3.80;;;14.70;1.00;;;;;;5075109;28;20483;-73
2022/11/07 08:50:54;;;;;;;59.23;3.70;;;14.50;1.00;;;;;;5074617;28;20475;-74
2022/11/07 08:53:21;;;;;;;63.47;4.37;;;14.50;1.00;;;;;;5075051;28;20481;-74
2022/11/07 08:55:48;;;;;;;59.33;3.67;;;14.60;1.00;;;;;;5075242;28;20475;-73
2022/11/07 08:58:16;;;;;;;61.20;3.90;;;14.50;1.00;;;;;;5075182;28;20571;-74
2022/11/07 09:00:43;;;;;;;59.07;3.13;;;14.30;1.00;;;;;;5074512;28;20826;-74
2022/11/07 09:03:11;;;;;;;62.20;3.40;;;14.30;1.00;;;;;;5074833;28;20447;-74
2022/11/07 09:05:38;;;;;;;60.63;4.27;;;14.50;1.00;;;;;;5074666;28;20443;-74
2022/11/07 09:08:05;;;;;;;59.57;3.80;;;14.50;1.00;;;;;;5074734;28;20486;-74
2022/11/07 09:10:32;;;;;;;59.80;3.63;;;14.70;1.00;;;;;;5073928;28;20443;-73
2022/11/07 09:13:00;;;;;;;64.47;4.30;;;14.90;1.00;;;;;;5074808;28;20447;-74
2022/11/07 09:15:29;;;;;;;59.83;3.50;;;14.80;1.00;;;;;;5075103;28;20888;-74
2022/11/07 09:18:00;;;;;;;64.00;3.90;;;14.90;1.00;;;;;;5074449;28;20478;-74
2022/11/07 09:20:27;;;;;;;59.87;3.80;;;15.10;1.00;;;;;;5074159;28;20459;-74
2022/11/07 09:22:56;;;;;;;61.80;3.57;;;15.60;1.00;;;;;;5074498;28;20470;-73
2022/11/07 09:25:23;;;;;;;61.10;3.47;;;15.90;1.00;;;;;;5074611;28;20959;-74
2022/11/07 09:27:50;;;;;;;60.27;3.70;;;15.30;1.00;;;;;;5074316;28;20474;-74
2022/11/07 09:30:17;;;;;;;60.40;3.47;;;15.40;1.00;;;;;;5073631;28;20448;-74
2022/11/07 09:32:46;;;;;;;59.50;3.67;;;15.60;1.00;;;;;;5074216;28;20447;-73
2022/11/07 09:35:13;;;;;;;61.40;3.83;;;15.80;1.00;;;;;;5074405;28;20459;-74
2022/11/07 09:37:41;;;;;;;58.47;3.43;;;15.60;1.00;;;;;;5073049;28;20558;-74
2022/11/07 09:40:21;;;;;;;58.80;3.70;;;15.90;1.00;;;;;;5073357;28;20450;-74
2022/11/07 09:43:00;;;;;;;61.87;3.87;;;16.40;1.00;;;;;;5074127;28;20451;-74
2022/11/07 09:45:31;;;;;;;59.97;4.30;;;16.70;1.00;;;;;;5073996;28;20483;-73
2022/11/07 09:48:03;;;;;;;60.00;3.80;;;16.90;1.00;;;;;;5073903;28;20550;-74
2022/11/07 09:50:35;;;;;;;61.40;3.70;;;16.50;99.90;;;;;;5073426;28;20451;-74
2022/11/07 09:53:08;;;;;;;63.67;3.70;;;15.70;99.90;;;;;;5073928;28;20462;-74
2022/11/07 09:55:38;;;;;;;60.10;4.00;;;15.80;1.00;;;;;;5073789;28;20455;-74
2022/11/07 09:58:12;;;;;;;61.10;3.43;;;15.90;1.00;;;;;;5073920;28;20467;-74
2022/11/07 10:00:40;;;;;;;61.80;4.37;;;15.80;99.90;;;;;;5073438;28;20820;-74
2022/11/07 10:03:10;;;;;;;58.77;3.63;;;15.90;99.90;;;;;;5073735;28;20447;-74
2022/11/07 10:05:46;;;;;;;59.27;3.43;;;15.70;99.90;;;;;;5073811;28;20474;-75
2022/11/07 10:08:19;;;;;;;60.30;3.50;;;15.50;99.90;;;;;;5073231;28;20466;-74
2022/11/07 10:10:52;;;;;;;67.00;3.60;;;15.40;99.90;;;;;;5072844;28;20534;-74
2022/11/07 10:13:44;;;;;;;63.60;3.63;;;15.20;1.00;;;;;;5073660;28;20447;-74
2022/11/07 10:16:18;;;;;;;61.10;3.93;;;15.10;1.00;;;;;;5073519;28;20462;-74
2022/11/07 10:19:03;;;;;;;60.50;3.77;;;15.30;1.00;;;;;;5072530;28;21033;-75
2022/11/07 10:21:36;;;;;;;62.10;3.67;;;15.50;1.00;;;;;;5073364;28;20458;-73
2022/11/07 10:24:18;;;;;;;61.20;4.23;;;15.80;1.00;;;;;;5073284;28;20459;-74
2022/11/07 10:26:45;;;;;;;61.23;3.70;;;15.80;1.00;;;;;;5073150;28;20453;-74
2022/11/07 10:29:14;;;;;;;60.30;3.40;;;15.70;1.00;;;;;;5072249;28;20515;-73
2022/11/07 10:31:46;;;;;;;61.67;3.93;;;15.60;99.90;;;;;;5073270;28;20551;-74
2022/11/07 10:34:21;;;;;;;62.37;3.53;;;15.70;1.00;;;;;;5073276;28;20787;-74
2022/11/07 10:36:47;;;;;;;58.57;3.17;;;15.70;99.90;;;;;;5073048;28;20483;-74
2022/11/07 10:39:16;;;;;;;60.17;3.87;;;15.90;1.00;;;;;;5072144;28;20444;-74
2022/11/07 10:41:46;;;;;;;62.37;4.07;;;16.10;99.90;;;;;;5073156;28;20450;-74
2022/11/07 10:44:22;;;;;;;65.23;3.87;;;16.30;99.90;;;;;;5073123;28;20452;-75
2022/11/07 10:46:49;;;;;;;63.30;3.80;;;16.30;99.90;;;;;;5072980;28;20454;-74
2022/11/07 10:49:20;;;;;;;62.77;4.17;;;16.40;99.90;;;;;;5071664;28;20853;-74
2022/11/07 10:51:48;;;;;;;60.30;3.80;;;16.30;99.90;;;;;;5072762;28;20776;-74
2022/11/07 10:54:28;;;;;;;62.10;3.80;;;16.20;99.90;;;;;;5072633;28;20910;-74
2022/11/07 10:57:01;;;;;;;60.43;3.60;;;16.10;99.90;;;;;;5072798;28;20451;-75
2022/11/07 10:59:30;;;;;;;61.07;3.93;;;16.50;99.90;;;;;;5071826;28;20964;-75
2022/11/07 11:01:59;;;;;;;62.80;3.50;;;16.90;99.90;;;;;;5072525;28;20448;-74
2022/11/07 11:04:29;;;;;;;60.70;3.70;;;17.10;99.90;;;;;;5072330;28;20458;-75
2022/11/07 11:07:02;;;;;;;60.50;3.80;;;17.40;99.90;;;;;;5072780;28;20447;-75
2022/11/07 11:09:31;;;;;;;59.70;3.47;;;17.80;99.90;;;;;;5071849;28;20537;-75
2022/11/07 11:11:58;;;;;;;58.90;3.63;;;17.90;99.90;;;;;;5072529;28;20443;-72
2022/11/07 11:14:25;;;;;;;59.40;3.77;;;18.40;99.90;;;;;;5072583;28;20451;-73
2022/11/07 11:16:55;;;;;;;60.93;3.73;;;18.60;99.90;;;;;;5072184;28;20819;-72
2022/11/07 11:19:24;;;;;;;59.67;3.90;;;19.20;99.90;;;;;;5071432;28;20924;-75
2022/11/07 11:21:54;;;;;;;60.23;3.57;;;19.70;99.90;;;;;;5072177;28;20455;-73
2022/11/07 11:24:34;;;;;;;61.37;3.37;;;19.90;99.90;;;;;;5072336;28;20866;-73
2022/11/07 11:27:06;;;;;;;61.07;4.20;;;20.10;99.90;;;;;;5072169;28;20497;-73
2022/11/07 11:29:41;;;;;;;61.03;3.80;;;19.70;99.90;;;;;;5071328;28;20514;-73
2022/11/07 11:32:16;;;;;;;59.67;3.60;;;19.70;99.90;;;;;;5072263;28;20530;-73
2022/11/07 11:34:53;;;;;;;58.13;3.10;;;20.70;99.90;;;;;;5072060;28;20943;-74
2022/11/07 11:37:26;;;;;;;64.87;4.00;;;21.60;99.90;;;;;;5071989;28;20471;-73
2022/11/07 11:40:05;;;;;;;66.73;3.40;;;22.40;99.90;;;;;;5071180;28;20882;-73
2022/11/07 11:42:39;;;;;;;59.50;3.30;;;22.80;99.90;;;;;;5071948;28;20454;-73
2022/11/07 11:45:15;;;;;;;59.77;3.07;;;23.10;99.90;;;;;;5072010;28;20461;-73
2022/11/07 11:47:47;;;;;;;63.10;3.57;;;21.10;99.90;;;;;;5071790;28;20796;-72
2022/11/07 11:50:17;;;;;;;62.27;3.90;;;19.50;99.90;;;;;;5070927;28;21021;-73
2022/11/07 11:52:46;;;;;;;60.80;3.80;;;19.60;99.90;;;;;;5072066;28;20477;-73
2022/11/07 11:55:14;;;;;;;60.97;3.67;;;19.60;99.90;;;;;;5071908;28;20455;-73
2022/11/07 11:57:50;;;;;;;61.90;3.87;;;19.30;99.90;;;;;;5071737;28;20470;-73
2022/11/07 12:00:19;;;;;;;58.53;3.50;;;19.00;99.90;;;;;;5070683;28;20443;-73
2022/11/07 12:02:52;;;;;;;58.80;3.30;;;18.70;99.90;;;;;;5071281;28;20443;-74
2022/11/07 12:05:44;;;;;;;58.37;3.07;;;19.20;99.90;;;;;;5071974;28;20481;-74
2022/11/07 12:08:27;;;;;;;62.80;3.70;;;19.40;99.90;;;;;;5071169;28;20463;-75
2022/11/07 12:11:00;;;;;;;59.27;3.30;;;19.50;99.90;;;;;;5072993;28;20585;-75
2022/11/07 12:13:33;;;;;;;61.73;3.57;;;19.70;99.90;;;;;;5073327;28;20538;-75
2022/11/07 12:16:10;;;;;;;60.80;3.70;;;19.40;99.90;;;;;;5073504;28;20825;-75
2022/11/07 12:18:44;;;;;;;61.20;3.77;;;19.20;99.90;;;;;;5071633;28;20467;-74
2022/11/07 12:21:23;;;;;;;61.30;3.37;;;18.60;99.90;;;;;;5072811;28;20819;-75
2022/11/07 12:24:02;;;;;;;60.97;3.70;;;18.20;99.90;;;;;;5072501;28;20455;-75
2022/11/07 12:26:34;;;;;;;61.20;3.60;;;18.40;99.90;;;;;;5072520;28;20462;-75
2022/11/07 12:29:11;;;;;;;62.70;4.10;;;18.80;99.90;;;;;;5072486;28;21041;-75
2022/11/07 12:31:49;;;;;;;59.43;3.10;;;18.80;99.90;;;;;;5073578;28;20447;-75
2022/11/07 12:34:30;;;;;;;60.90;3.50;;;18.70;99.90;;;;;;5072850;28;20453;-75
2022/11/07 12:37:09;;;;;;;61.43;3.30;;;18.20;99.90;;;;;;5072173;28;20451;-74
2022/11/07 12:39:58;;;;;;;59.17;2.90;;;18.00;99.90;;;;;;5071243;28;20446;-74
2022/11/07 12:42:40;;;;;;;60.20;3.60;;;17.90;99.90;;;;;;5072132;28;20796;-74
2022/11/07 12:45:17;;;;;;;59.93;3.23;;;18.10;99.90;;;;;;5072261;28;20443;-75
2022/11/07 12:48:04;;;;;;;60.00;3.27;;;18.10;99.90;;;;;;5073055;28;20473;-75
2022/11/07 12:50:40;;;;;;;60.30;3.60;;;18.50;99.90;;;;;;5071241;28;20478;-75
2022/11/07 12:53:23;;;;;;;62.17;3.20;;;18.80;99.90;;;;;;5072257;28;20451;-75
2022/11/07 12:55:57;;;;;;;58.30;3.00;;;18.90;99.90;;;;;;5072203;28;20447;-75
2022/11/07 12:58:28;;;;;;;60.57;3.47;;;18.90;99.90;;;;;;5072190;28;20823;-75
2022/11/07 13:00:56;;;;;;;60.50;3.03;;;18.60;99.90;;;;;;5071603;28;20522;-75
2022/11/07 13:03:42;;;;;;;59.97;3.20;;;18.60;99.90;;;;;;5071925;28;20443;-75
2022/11/07 13:06:15;;;;;;;61.10;3.43;;;18.30;99.90;;;;;;5066677;28;20452;-75